sensor_id;sensor_type;location;lat;lon;timestamp;P1;durP1;ratioP1;P2;durP2;ratioP2
75986;SDS011;74517;44.762;37.698;2023-12-22T00:00:37;14.82;;;7.15;;
75986;SDS011;74517;44.762;37.698;2023-12-22T00:01:43;14.18;;;6.50;;
75986;SDS011;74517;44.762;37.698;2023-12-22T00:02:46;14.90;;;6.95;;
75986;SDS011;74517;44.762;37.698;2023-12-22T00:03:49;12.35;;;6.35;;
75986;SDS011;74517;44.762;37.698;2023-12-22T00:04:52;13.68;;;6.30;;
75986;SDS011;74517;44.762;37.698;2023-12-22T00:05:55;10.35;;;5.72;;
75986;SDS011;74517;44.762;37.698;2023-12-22T00:06:58;14.50;;;6.45;;
75986;SDS011;74517;44.762;37.698;2023-12-22T00:08:01;16.02;;;6.28;;
75986;SDS011;74517;44.762;37.698;2023-12-22T00:09:04;11.77;;;6.13;;
75986;SDS011;74517;44.762;37.698;2023-12-22T00:10:07;14.50;;;7.05;;
75986;SDS011;74517;44.762;37.698;2023-12-22T00:11:11;11.70;;;5.82;;
75986;SDS011;74517;44.762;37.698;2023-12-22T00:12:14;13.23;;;6.00;;
75986;SDS011;74517;44.762;37.698;2023-12-22T00:13:17;11.35;;;6.07;;
75986;SDS011;74517;44.762;37.698;2023-12-22T00:14:20;13.18;;;6.60;;
75986;SDS011;74517;44.762;37.698;2023-12-22T00:15:23;14.48;;;7.13;;
75986;SDS011;74517;44.762;37.698;2023-12-22T00:16:26;11.77;;;6.13;;
75986;SDS011;74517;44.762;37.698;2023-12-22T00:17:29;18.67;;;7.38;;
75986;SDS011;74517;44.762;37.698;2023-12-22T00:18:33;10.50;;;6.30;;
75986;SDS011;74517;44.762;37.698;2023-12-22T00:19:36;13.25;;;6.32;;
75986;SDS011;74517;44.762;37.698;2023-12-22T00:20:39;11.93;;;6.65;;
75986;SDS011;74517;44.762;37.698;2023-12-22T00:21:43;11.40;;;6.22;;
75986;SDS011;74517;44.762;37.698;2023-12-22T00:22:46;10.60;;;5.95;;
75986;SDS011;74517;44.762;37.698;2023-12-22T00:23:49;13.20;;;7.03;;
75986;SDS011;74517;44.762;37.698;2023-12-22T00:24:52;10.82;;;6.68;;
75986;SDS011;74517;44.762;37.698;2023-12-22T00:25:56;11.88;;;6.18;;
75986;SDS011;74517;44.762;37.698;2023-12-22T00:26:59;12.00;;;7.25;;
75986;SDS011;74517;44.762;37.698;2023-12-22T00:28:02;14.27;;;7.05;;
75986;SDS011;74517;44.762;37.698;2023-12-22T00:29:06;14.00;;;6.50;;
75986;SDS011;74517;44.762;37.698;2023-12-22T00:30:09;11.90;;;6.20;;
75986;SDS011;74517;44.762;37.698;2023-12-22T00:31:13;11.00;;;7.25;;
75986;SDS011;74517;44.762;37.698;2023-12-22T00:32:16;14.10;;;6.80;;
75986;SDS011;74517;44.762;37.698;2023-12-22T00:33:20;13.40;;;6.05;;
75986;SDS011;74517;44.762;37.698;2023-12-22T00:34:23;14.52;;;6.78;;
75986;SDS011;74517;44.762;37.698;2023-12-22T00:35:26;18.17;;;7.80;;
75986;SDS011;74517;44.762;37.698;2023-12-22T00:36:29;10.50;;;5.85;;
75986;SDS011;74517;44.762;37.698;2023-12-22T00:37:32;12.32;;;6.72;;
75986;SDS011;74517;44.762;37.698;2023-12-22T00:38:36;11.85;;;7.30;;
75986;SDS011;74517;44.762;37.698;2023-12-22T00:39:39;13.25;;;6.95;;
75986;SDS011;74517;44.762;37.698;2023-12-22T00:40:42;13.45;;;7.25;;
75986;SDS011;74517;44.762;37.698;2023-12-22T00:41:45;12.77;;;5.75;;
75986;SDS011;74517;44.762;37.698;2023-12-22T00:42:48;11.10;;;5.50;;
75986;SDS011;74517;44.762;37.698;2023-12-22T00:43:51;18.45;;;6.45;;
75986;SDS011;74517;44.762;37.698;2023-12-22T00:44:54;17.73;;;7.43;;
75986;SDS011;74517;44.762;37.698;2023-12-22T00:45:57;12.18;;;7.15;;
75986;SDS011;74517;44.762;37.698;2023-12-22T00:47:00;15.65;;;7.40;;
75986;SDS011;74517;44.762;37.698;2023-12-22T00:48:04;13.38;;;6.25;;
75986;SDS011;74517;44.762;37.698;2023-12-22T00:49:07;11.23;;;6.63;;
75986;SDS011;74517;44.762;37.698;2023-12-22T00:50:10;13.15;;;7.10;;
75986;SDS011;74517;44.762;37.698;2023-12-22T00:51:17;13.48;;;6.35;;
75986;SDS011;74517;44.762;37.698;2023-12-22T00:52:20;12.35;;;6.22;;
75986;SDS011;74517;44.762;37.698;2023-12-22T00:53:23;14.27;;;6.03;;
75986;SDS011;74517;44.762;37.698;2023-12-22T00:54:26;11.55;;;6.50;;
75986;SDS011;74517;44.762;37.698;2023-12-22T00:55:30;14.55;;;6.18;;
75986;SDS011;74517;44.762;37.698;2023-12-22T00:56:33;12.93;;;6.45;;
75986;SDS011;74517;44.762;37.698;2023-12-22T00:57:36;12.75;;;5.85;;
75986;SDS011;74517;44.762;37.698;2023-12-22T00:58:40;14.85;;;5.95;;
75986;SDS011;74517;44.762;37.698;2023-12-22T00:59:43;14.13;;;6.18;;
75986;SDS011;74517;44.762;37.698;2023-12-22T01:00:50;15.65;;;6.75;;
75986;SDS011;74517;44.762;37.698;2023-12-22T01:01:53;12.60;;;6.20;;
75986;SDS011;74517;44.762;37.698;2023-12-22T01:02:56;11.48;;;6.22;;
75986;SDS011;74517;44.762;37.698;2023-12-22T01:03:59;12.40;;;6.40;;
75986;SDS011;74517;44.762;37.698;2023-12-22T01:05:03;11.52;;;6.20;;
75986;SDS011;74517;44.762;37.698;2023-12-22T01:06:09;12.55;;;6.13;;
75986;SDS011;74517;44.762;37.698;2023-12-22T01:07:12;13.70;;;5.78;;
75986;SDS011;74517;44.762;37.698;2023-12-22T01:08:16;17.67;;;7.30;;
75986;SDS011;74517;44.762;37.698;2023-12-22T01:09:19;13.85;;;6.43;;
75986;SDS011;74517;44.762;37.698;2023-12-22T01:10:22;11.98;;;6.05;;
75986;SDS011;74517;44.762;37.698;2023-12-22T01:11:26;16.17;;;7.00;;
75986;SDS011;74517;44.762;37.698;2023-12-22T01:12:30;11.85;;;6.03;;
75986;SDS011;74517;44.762;37.698;2023-12-22T01:13:33;13.55;;;5.75;;
75986;SDS011;74517;44.762;37.698;2023-12-22T01:14:36;14.18;;;6.43;;
75986;SDS011;74517;44.762;37.698;2023-12-22T01:15:40;12.48;;;6.40;;
75986;SDS011;74517;44.762;37.698;2023-12-22T01:16:43;16.73;;;7.03;;
75986;SDS011;74517;44.762;37.698;2023-12-22T01:17:46;11.82;;;6.63;;
75986;SDS011;74517;44.762;37.698;2023-12-22T01:18:49;15.13;;;6.10;;
75986;SDS011;74517;44.762;37.698;2023-12-22T01:19:53;12.82;;;6.32;;
75986;SDS011;74517;44.762;37.698;2023-12-22T01:20:56;13.52;;;5.88;;
75986;SDS011;74517;44.762;37.698;2023-12-22T01:21:59;11.65;;;5.95;;
75986;SDS011;74517;44.762;37.698;2023-12-22T01:23:02;12.63;;;6.45;;
75986;SDS011;74517;44.762;37.698;2023-12-22T01:24:05;14.50;;;5.85;;
75986;SDS011;74517;44.762;37.698;2023-12-22T01:25:08;11.18;;;5.78;;
75986;SDS011;74517;44.762;37.698;2023-12-22T01:26:11;10.38;;;5.53;;
75986;SDS011;74517;44.762;37.698;2023-12-22T01:27:14;10.48;;;5.60;;
75986;SDS011;74517;44.762;37.698;2023-12-22T01:28:17;12.65;;;6.03;;
75986;SDS011;74517;44.762;37.698;2023-12-22T01:29:20;12.18;;;6.75;;
75986;SDS011;74517;44.762;37.698;2023-12-22T01:30:23;12.68;;;6.90;;
75986;SDS011;74517;44.762;37.698;2023-12-22T01:31:26;10.77;;;5.88;;
75986;SDS011;74517;44.762;37.698;2023-12-22T01:32:30;16.70;;;9.27;;
75986;SDS011;74517;44.762;37.698;2023-12-22T01:33:37;13.52;;;5.95;;
75986;SDS011;74517;44.762;37.698;2023-12-22T01:34:40;12.38;;;6.75;;
75986;SDS011;74517;44.762;37.698;2023-12-22T01:35:43;13.43;;;6.50;;
75986;SDS011;74517;44.762;37.698;2023-12-22T01:36:46;11.07;;;6.25;;
75986;SDS011;74517;44.762;37.698;2023-12-22T01:37:49;12.95;;;5.88;;
75986;SDS011;74517;44.762;37.698;2023-12-22T01:38:52;13.18;;;6.07;;
75986;SDS011;74517;44.762;37.698;2023-12-22T01:39:55;14.10;;;6.20;;
75986;SDS011;74517;44.762;37.698;2023-12-22T01:40:58;17.30;;;7.00;;
75986;SDS011;74517;44.762;37.698;2023-12-22T01:42:01;11.02;;;6.45;;
75986;SDS011;74517;44.762;37.698;2023-12-22T01:43:04;11.50;;;6.18;;
75986;SDS011;74517;44.762;37.698;2023-12-22T01:44:07;11.57;;;5.93;;
75986;SDS011;74517;44.762;37.698;2023-12-22T01:45:10;11.70;;;5.43;;
75986;SDS011;74517;44.762;37.698;2023-12-22T01:46:13;10.18;;;5.65;;
75986;SDS011;74517;44.762;37.698;2023-12-22T01:47:17;16.13;;;6.80;;
75986;SDS011;74517;44.762;37.698;2023-12-22T01:48:20;12.73;;;5.90;;
75986;SDS011;74517;44.762;37.698;2023-12-22T01:49:25;11.00;;;5.85;;
75986;SDS011;74517;44.762;37.698;2023-12-22T01:50:29;13.10;;;6.15;;
75986;SDS011;74517;44.762;37.698;2023-12-22T01:51:33;10.93;;;5.63;;
75986;SDS011;74517;44.762;37.698;2023-12-22T01:52:38;13.07;;;6.78;;
75986;SDS011;74517;44.762;37.698;2023-12-22T01:53:44;16.08;;;6.40;;
75986;SDS011;74517;44.762;37.698;2023-12-22T01:54:49;12.32;;;6.60;;
75986;SDS011;74517;44.762;37.698;2023-12-22T01:55:53;16.65;;;6.68;;
75986;SDS011;74517;44.762;37.698;2023-12-22T01:56:57;12.23;;;5.88;;
75986;SDS011;74517;44.762;37.698;2023-12-22T01:58:00;10.93;;;5.90;;
75986;SDS011;74517;44.762;37.698;2023-12-22T01:59:03;13.63;;;6.22;;
75986;SDS011;74517;44.762;37.698;2023-12-22T02:00:08;16.30;;;6.70;;
75986;SDS011;74517;44.762;37.698;2023-12-22T02:01:15;14.98;;;6.47;;
75986;SDS011;74517;44.762;37.698;2023-12-22T02:02:18;15.02;;;6.00;;
75986;SDS011;74517;44.762;37.698;2023-12-22T02:03:21;12.10;;;5.45;;
75986;SDS011;74517;44.762;37.698;2023-12-22T02:04:24;10.38;;;5.25;;
75986;SDS011;74517;44.762;37.698;2023-12-22T02:05:29;12.73;;;5.93;;
75986;SDS011;74517;44.762;37.698;2023-12-22T02:06:32;13.95;;;6.72;;
75986;SDS011;74517;44.762;37.698;2023-12-22T02:07:38;16.95;;;6.13;;
75986;SDS011;74517;44.762;37.698;2023-12-22T02:08:44;12.45;;;6.53;;
75986;SDS011;74517;44.762;37.698;2023-12-22T02:09:49;11.43;;;6.75;;
75986;SDS011;74517;44.762;37.698;2023-12-22T02:10:52;12.60;;;6.05;;
75986;SDS011;74517;44.762;37.698;2023-12-22T02:11:56;13.55;;;6.47;;
75986;SDS011;74517;44.762;37.698;2023-12-22T02:12:59;14.38;;;6.07;;
75986;SDS011;74517;44.762;37.698;2023-12-22T02:14:02;13.63;;;7.28;;
75986;SDS011;74517;44.762;37.698;2023-12-22T02:15:05;15.68;;;6.35;;
75986;SDS011;74517;44.762;37.698;2023-12-22T02:16:20;15.73;;;6.57;;
75986;SDS011;74517;44.762;37.698;2023-12-22T02:18:55;11.80;;;5.97;;
75986;SDS011;74517;44.762;37.698;2023-12-22T02:19:59;11.27;;;6.35;;
75986;SDS011;74517;44.762;37.698;2023-12-22T02:21:04;11.88;;;7.03;;
75986;SDS011;74517;44.762;37.698;2023-12-22T02:22:08;18.55;;;6.97;;
75986;SDS011;74517;44.762;37.698;2023-12-22T02:23:11;13.00;;;6.05;;
75986;SDS011;74517;44.762;37.698;2023-12-22T02:24:14;9.95;;;5.45;;
75986;SDS011;74517;44.762;37.698;2023-12-22T02:25:17;14.07;;;6.32;;
75986;SDS011;74517;44.762;37.698;2023-12-22T02:26:42;11.88;;;6.38;;
75986;SDS011;74517;44.762;37.698;2023-12-22T02:27:57;12.75;;;6.25;;
75986;SDS011;74517;44.762;37.698;2023-12-22T02:29:06;13.82;;;6.03;;
75986;SDS011;74517;44.762;37.698;2023-12-22T02:30:13;10.82;;;6.05;;
75986;SDS011;74517;44.762;37.698;2023-12-22T02:31:32;14.02;;;6.32;;
75986;SDS011;74517;44.762;37.698;2023-12-22T02:32:40;9.85;;;5.68;;
75986;SDS011;74517;44.762;37.698;2023-12-22T02:33:45;10.45;;;5.95;;
75986;SDS011;74517;44.762;37.698;2023-12-22T02:34:53;11.43;;;6.10;;
75986;SDS011;74517;44.762;37.698;2023-12-22T02:36:02;10.35;;;5.97;;
75986;SDS011;74517;44.762;37.698;2023-12-22T02:37:07;13.07;;;6.15;;
75986;SDS011;74517;44.762;37.698;2023-12-22T02:38:12;13.27;;;6.65;;
75986;SDS011;74517;44.762;37.698;2023-12-22T02:39:15;12.65;;;6.63;;
75986;SDS011;74517;44.762;37.698;2023-12-22T02:40:20;13.75;;;6.38;;
75986;SDS011;74517;44.762;37.698;2023-12-22T02:41:23;12.27;;;6.10;;
75986;SDS011;74517;44.762;37.698;2023-12-22T02:42:27;12.45;;;6.03;;
75986;SDS011;74517;44.762;37.698;2023-12-22T02:43:32;12.80;;;6.60;;
75986;SDS011;74517;44.762;37.698;2023-12-22T02:44:36;13.07;;;6.80;;
75986;SDS011;74517;44.762;37.698;2023-12-22T02:45:40;12.48;;;6.55;;
75986;SDS011;74517;44.762;37.698;2023-12-22T02:46:43;11.45;;;6.55;;
75986;SDS011;74517;44.762;37.698;2023-12-22T02:47:46;16.35;;;6.50;;
75986;SDS011;74517;44.762;37.698;2023-12-22T02:48:50;10.23;;;5.78;;
75986;SDS011;74517;44.762;37.698;2023-12-22T02:49:53;10.25;;;5.32;;
75986;SDS011;74517;44.762;37.698;2023-12-22T02:50:56;11.23;;;5.47;;
75986;SDS011;74517;44.762;37.698;2023-12-22T02:51:59;14.07;;;5.97;;
75986;SDS011;74517;44.762;37.698;2023-12-22T02:53:02;11.43;;;5.45;;
75986;SDS011;74517;44.762;37.698;2023-12-22T02:54:05;12.05;;;6.20;;
75986;SDS011;74517;44.762;37.698;2023-12-22T02:55:08;10.25;;;5.05;;
75986;SDS011;74517;44.762;37.698;2023-12-22T02:56:12;10.00;;;4.63;;
75986;SDS011;74517;44.762;37.698;2023-12-22T02:57:15;10.00;;;4.95;;
75986;SDS011;74517;44.762;37.698;2023-12-22T02:58:18;10.75;;;6.13;;
75986;SDS011;74517;44.762;37.698;2023-12-22T02:59:21;10.27;;;5.90;;
75986;SDS011;74517;44.762;37.698;2023-12-22T03:00:24;10.02;;;5.55;;
75986;SDS011;74517;44.762;37.698;2023-12-22T03:01:27;10.57;;;6.18;;
75986;SDS011;74517;44.762;37.698;2023-12-22T03:02:30;13.98;;;5.25;;
75986;SDS011;74517;44.762;37.698;2023-12-22T03:03:33;8.75;;;4.68;;
75986;SDS011;74517;44.762;37.698;2023-12-22T03:04:36;9.13;;;4.78;;
75986;SDS011;74517;44.762;37.698;2023-12-22T03:05:39;9.32;;;4.75;;
75986;SDS011;74517;44.762;37.698;2023-12-22T03:06:42;10.32;;;4.47;;
75986;SDS011;74517;44.762;37.698;2023-12-22T03:07:45;7.22;;;4.25;;
75986;SDS011;74517;44.762;37.698;2023-12-22T03:08:48;9.18;;;4.25;;
75986;SDS011;74517;44.762;37.698;2023-12-22T03:09:51;8.55;;;3.97;;
75986;SDS011;74517;44.762;37.698;2023-12-22T03:10:54;6.25;;;2.78;;
75986;SDS011;74517;44.762;37.698;2023-12-22T03:11:57;6.53;;;3.92;;
75986;SDS011;74517;44.762;37.698;2023-12-22T03:13:04;8.65;;;5.43;;
75986;SDS011;74517;44.762;37.698;2023-12-22T03:14:07;9.52;;;4.35;;
75986;SDS011;74517;44.762;37.698;2023-12-22T03:15:11;9.52;;;4.78;;
75986;SDS011;74517;44.762;37.698;2023-12-22T03:16:14;8.48;;;4.80;;
75986;SDS011;74517;44.762;37.698;2023-12-22T03:17:17;7.10;;;3.38;;
75986;SDS011;74517;44.762;37.698;2023-12-22T03:18:20;7.95;;;4.25;;
75986;SDS011;74517;44.762;37.698;2023-12-22T03:19:23;9.25;;;4.45;;
75986;SDS011;74517;44.762;37.698;2023-12-22T03:20:26;9.30;;;3.72;;
75986;SDS011;74517;44.762;37.698;2023-12-22T03:21:29;7.10;;;3.33;;
75986;SDS011;74517;44.762;37.698;2023-12-22T03:22:32;7.10;;;3.67;;
75986;SDS011;74517;44.762;37.698;2023-12-22T03:23:35;7.32;;;4.47;;
75986;SDS011;74517;44.762;37.698;2023-12-22T03:24:38;6.90;;;4.00;;
75986;SDS011;74517;44.762;37.698;2023-12-22T03:25:41;7.60;;;4.07;;
75986;SDS011;74517;44.762;37.698;2023-12-22T03:26:45;8.55;;;4.40;;
75986;SDS011;74517;44.762;37.698;2023-12-22T03:27:48;6.45;;;4.32;;
75986;SDS011;74517;44.762;37.698;2023-12-22T03:28:51;7.95;;;4.93;;
75986;SDS011;74517;44.762;37.698;2023-12-22T03:29:54;8.45;;;4.35;;
75986;SDS011;74517;44.762;37.698;2023-12-22T03:30:57;8.50;;;4.57;;
75986;SDS011;74517;44.762;37.698;2023-12-22T03:32:00;7.47;;;4.15;;
75986;SDS011;74517;44.762;37.698;2023-12-22T03:33:03;5.72;;;3.42;;
75986;SDS011;74517;44.762;37.698;2023-12-22T03:34:06;6.57;;;4.07;;
75986;SDS011;74517;44.762;37.698;2023-12-22T03:35:09;7.65;;;3.88;;
75986;SDS011;74517;44.762;37.698;2023-12-22T03:36:13;7.20;;;4.05;;
75986;SDS011;74517;44.762;37.698;2023-12-22T03:37:16;8.15;;;4.75;;
75986;SDS011;74517;44.762;37.698;2023-12-22T03:38:19;9.95;;;4.75;;
75986;SDS011;74517;44.762;37.698;2023-12-22T03:39:22;8.35;;;4.20;;
75986;SDS011;74517;44.762;37.698;2023-12-22T03:40:25;9.13;;;4.85;;
75986;SDS011;74517;44.762;37.698;2023-12-22T03:41:28;8.80;;;4.13;;
75986;SDS011;74517;44.762;37.698;2023-12-22T03:42:31;8.93;;;4.78;;
75986;SDS011;74517;44.762;37.698;2023-12-22T03:43:34;6.63;;;4.72;;
75986;SDS011;74517;44.762;37.698;2023-12-22T03:44:37;7.70;;;4.80;;
75986;SDS011;74517;44.762;37.698;2023-12-22T03:45:41;8.63;;;4.65;;
75986;SDS011;74517;44.762;37.698;2023-12-22T03:46:44;11.45;;;5.25;;
75986;SDS011;74517;44.762;37.698;2023-12-22T03:47:47;8.45;;;5.32;;
75986;SDS011;74517;44.762;37.698;2023-12-22T03:48:50;8.40;;;5.93;;
75986;SDS011;74517;44.762;37.698;2023-12-22T03:49:54;10.52;;;5.88;;
75986;SDS011;74517;44.762;37.698;2023-12-22T03:50:57;6.22;;;4.97;;
75986;SDS011;74517;44.762;37.698;2023-12-22T03:52:00;8.88;;;5.18;;
75986;SDS011;74517;44.762;37.698;2023-12-22T03:53:03;8.77;;;5.65;;
75986;SDS011;74517;44.762;37.698;2023-12-22T03:54:06;8.95;;;5.03;;
75986;SDS011;74517;44.762;37.698;2023-12-22T03:55:09;8.55;;;5.32;;
75986;SDS011;74517;44.762;37.698;2023-12-22T03:56:12;6.47;;;4.60;;
75986;SDS011;74517;44.762;37.698;2023-12-22T03:57:15;8.93;;;5.43;;
75986;SDS011;74517;44.762;37.698;2023-12-22T03:58:18;8.50;;;5.60;;
75986;SDS011;74517;44.762;37.698;2023-12-22T03:59:21;8.75;;;4.78;;
75986;SDS011;74517;44.762;37.698;2023-12-22T04:00:24;7.68;;;5.50;;
75986;SDS011;74517;44.762;37.698;2023-12-22T04:01:27;8.75;;;4.57;;
75986;SDS011;74517;44.762;37.698;2023-12-22T04:02:30;9.13;;;4.97;;
75986;SDS011;74517;44.762;37.698;2023-12-22T04:03:33;8.15;;;5.10;;
75986;SDS011;74517;44.762;37.698;2023-12-22T04:04:39;9.13;;;5.85;;
75986;SDS011;74517;44.762;37.698;2023-12-22T04:05:43;9.98;;;5.57;;
75986;SDS011;74517;44.762;37.698;2023-12-22T04:06:46;9.30;;;5.95;;
75986;SDS011;74517;44.762;37.698;2023-12-22T04:07:49;7.32;;;5.40;;
75986;SDS011;74517;44.762;37.698;2023-12-22T04:08:52;8.55;;;5.88;;
75986;SDS011;74517;44.762;37.698;2023-12-22T04:09:55;10.35;;;6.40;;
75986;SDS011;74517;44.762;37.698;2023-12-22T04:10:58;9.40;;;5.90;;
75986;SDS011;74517;44.762;37.698;2023-12-22T04:12:01;9.68;;;6.35;;
75986;SDS011;74517;44.762;37.698;2023-12-22T04:13:05;9.95;;;6.70;;
75986;SDS011;74517;44.762;37.698;2023-12-22T04:14:08;12.35;;;6.97;;
75986;SDS011;74517;44.762;37.698;2023-12-22T04:15:12;14.80;;;8.15;;
75986;SDS011;74517;44.762;37.698;2023-12-22T04:16:15;10.55;;;7.38;;
75986;SDS011;74517;44.762;37.698;2023-12-22T04:17:18;10.73;;;6.50;;
75986;SDS011;74517;44.762;37.698;2023-12-22T04:18:21;10.30;;;6.72;;
75986;SDS011;74517;44.762;37.698;2023-12-22T04:19:24;14.25;;;7.55;;
75986;SDS011;74517;44.762;37.698;2023-12-22T04:20:28;9.88;;;7.05;;
75986;SDS011;74517;44.762;37.698;2023-12-22T04:21:32;11.52;;;6.93;;
75986;SDS011;74517;44.762;37.698;2023-12-22T04:22:35;8.48;;;6.78;;
75986;SDS011;74517;44.762;37.698;2023-12-22T04:23:38;10.40;;;6.40;;
75986;SDS011;74517;44.762;37.698;2023-12-22T04:24:41;11.27;;;7.20;;
75986;SDS011;74517;44.762;37.698;2023-12-22T04:25:44;13.65;;;7.53;;
75986;SDS011;74517;44.762;37.698;2023-12-22T04:26:47;12.00;;;7.13;;
75986;SDS011;74517;44.762;37.698;2023-12-22T04:27:51;10.50;;;6.65;;
75986;SDS011;74517;44.762;37.698;2023-12-22T04:28:54;10.63;;;8.00;;
75986;SDS011;74517;44.762;37.698;2023-12-22T04:29:57;12.80;;;8.13;;
75986;SDS011;74517;44.762;37.698;2023-12-22T04:31:00;14.48;;;8.85;;
75986;SDS011;74517;44.762;37.698;2023-12-22T04:32:04;12.80;;;8.20;;
75986;SDS011;74517;44.762;37.698;2023-12-22T04:33:07;12.80;;;8.48;;
75986;SDS011;74517;44.762;37.698;2023-12-22T04:34:12;14.20;;;9.55;;
75986;SDS011;74517;44.762;37.698;2023-12-22T04:35:16;17.42;;;10.30;;
75986;SDS011;74517;44.762;37.698;2023-12-22T04:36:20;13.52;;;9.18;;
75986;SDS011;74517;44.762;37.698;2023-12-22T04:37:23;14.32;;;10.38;;
75986;SDS011;74517;44.762;37.698;2023-12-22T04:38:26;16.75;;;10.18;;
75986;SDS011;74517;44.762;37.698;2023-12-22T04:39:30;14.75;;;10.27;;
75986;SDS011;74517;44.762;37.698;2023-12-22T04:40:33;16.23;;;9.55;;
75986;SDS011;74517;44.762;37.698;2023-12-22T04:41:36;15.73;;;10.48;;
75986;SDS011;74517;44.762;37.698;2023-12-22T04:42:39;16.50;;;9.82;;
75986;SDS011;74517;44.762;37.698;2023-12-22T04:43:42;14.13;;;9.57;;
75986;SDS011;74517;44.762;37.698;2023-12-22T04:44:45;15.32;;;10.18;;
75986;SDS011;74517;44.762;37.698;2023-12-22T04:45:48;17.67;;;11.93;;
75986;SDS011;74517;44.762;37.698;2023-12-22T04:46:51;20.20;;;14.65;;
75986;SDS011;74517;44.762;37.698;2023-12-22T04:47:55;27.30;;;20.50;;
75986;SDS011;74517;44.762;37.698;2023-12-22T04:48:59;19.70;;;13.23;;
75986;SDS011;74517;44.762;37.698;2023-12-22T04:50:04;21.92;;;14.30;;
75986;SDS011;74517;44.762;37.698;2023-12-22T04:51:07;23.58;;;15.52;;
75986;SDS011;74517;44.762;37.698;2023-12-22T04:52:11;23.88;;;13.40;;
75986;SDS011;74517;44.762;37.698;2023-12-22T04:53:14;17.98;;;11.70;;
75986;SDS011;74517;44.762;37.698;2023-12-22T04:54:17;18.48;;;11.15;;
75986;SDS011;74517;44.762;37.698;2023-12-22T04:55:20;17.50;;;11.43;;
75986;SDS011;74517;44.762;37.698;2023-12-22T04:56:25;17.20;;;11.23;;
75986;SDS011;74517;44.762;37.698;2023-12-22T04:57:29;21.00;;;13.45;;
75986;SDS011;74517;44.762;37.698;2023-12-22T04:58:32;18.13;;;11.70;;
75986;SDS011;74517;44.762;37.698;2023-12-22T04:59:35;18.40;;;12.60;;
75986;SDS011;74517;44.762;37.698;2023-12-22T05:00:38;21.65;;;14.77;;
75986;SDS011;74517;44.762;37.698;2023-12-22T05:01:41;23.15;;;14.48;;
75986;SDS011;74517;44.762;37.698;2023-12-22T05:02:45;21.58;;;12.95;;
75986;SDS011;74517;44.762;37.698;2023-12-22T05:03:48;17.70;;;11.27;;
75986;SDS011;74517;44.762;37.698;2023-12-22T05:04:52;15.82;;;10.02;;
75986;SDS011;74517;44.762;37.698;2023-12-22T05:05:55;14.45;;;9.52;;
75986;SDS011;74517;44.762;37.698;2023-12-22T05:06:58;13.20;;;9.10;;
75986;SDS011;74517;44.762;37.698;2023-12-22T05:08:03;17.13;;;9.77;;
75986;SDS011;74517;44.762;37.698;2023-12-22T05:09:06;14.02;;;9.77;;
75986;SDS011;74517;44.762;37.698;2023-12-22T05:10:09;15.05;;;9.90;;
75986;SDS011;74517;44.762;37.698;2023-12-22T05:11:13;14.82;;;10.02;;
75986;SDS011;74517;44.762;37.698;2023-12-22T05:12:16;16.27;;;10.82;;
75986;SDS011;74517;44.762;37.698;2023-12-22T05:13:19;16.95;;;10.27;;
75986;SDS011;74517;44.762;37.698;2023-12-22T05:14:22;16.80;;;12.07;;
75986;SDS011;74517;44.762;37.698;2023-12-22T05:15:25;15.95;;;10.45;;
75986;SDS011;74517;44.762;37.698;2023-12-22T05:16:29;15.68;;;10.35;;
75986;SDS011;74517;44.762;37.698;2023-12-22T05:17:33;17.13;;;10.35;;
75986;SDS011;74517;44.762;37.698;2023-12-22T05:18:36;15.50;;;9.95;;
75986;SDS011;74517;44.762;37.698;2023-12-22T05:19:40;16.20;;;10.02;;
75986;SDS011;74517;44.762;37.698;2023-12-22T05:20:43;16.92;;;10.65;;
75986;SDS011;74517;44.762;37.698;2023-12-22T05:21:46;15.98;;;10.77;;
75986;SDS011;74517;44.762;37.698;2023-12-22T05:22:51;19.70;;;10.68;;
75986;SDS011;74517;44.762;37.698;2023-12-22T05:23:54;16.83;;;10.85;;
75986;SDS011;74517;44.762;37.698;2023-12-22T05:24:57;18.88;;;11.15;;
75986;SDS011;74517;44.762;37.698;2023-12-22T05:26:00;16.83;;;11.35;;
75986;SDS011;74517;44.762;37.698;2023-12-22T05:27:04;17.75;;;10.02;;
75986;SDS011;74517;44.762;37.698;2023-12-22T05:28:07;18.55;;;11.00;;
75986;SDS011;74517;44.762;37.698;2023-12-22T05:29:10;18.67;;;11.73;;
75986;SDS011;74517;44.762;37.698;2023-12-22T05:30:15;19.35;;;11.15;;
75986;SDS011;74517;44.762;37.698;2023-12-22T05:31:18;19.05;;;12.30;;
75986;SDS011;74517;44.762;37.698;2023-12-22T05:32:22;17.17;;;10.40;;
75986;SDS011;74517;44.762;37.698;2023-12-22T05:33:25;18.83;;;11.55;;
75986;SDS011;74517;44.762;37.698;2023-12-22T05:34:28;19.45;;;12.60;;
75986;SDS011;74517;44.762;37.698;2023-12-22T05:35:31;19.00;;;12.50;;
75986;SDS011;74517;44.762;37.698;2023-12-22T05:36:34;23.02;;;13.27;;
75986;SDS011;74517;44.762;37.698;2023-12-22T05:37:37;21.83;;;13.25;;
75986;SDS011;74517;44.762;37.698;2023-12-22T05:38:40;20.50;;;11.98;;
75986;SDS011;74517;44.762;37.698;2023-12-22T05:39:43;20.23;;;12.13;;
75986;SDS011;74517;44.762;37.698;2023-12-22T05:40:47;19.98;;;11.45;;
75986;SDS011;74517;44.762;37.698;2023-12-22T05:41:50;19.00;;;11.57;;
75986;SDS011;74517;44.762;37.698;2023-12-22T05:42:53;18.45;;;11.13;;
75986;SDS011;74517;44.762;37.698;2023-12-22T05:43:57;16.95;;;11.13;;
75986;SDS011;74517;44.762;37.698;2023-12-22T05:45:00;21.65;;;12.38;;
75986;SDS011;74517;44.762;37.698;2023-12-22T05:46:03;18.58;;;11.73;;
75986;SDS011;74517;44.762;37.698;2023-12-22T05:47:08;20.20;;;11.68;;
75986;SDS011;74517;44.762;37.698;2023-12-22T05:48:13;18.30;;;11.10;;
75986;SDS011;74517;44.762;37.698;2023-12-22T05:49:16;20.02;;;12.18;;
75986;SDS011;74517;44.762;37.698;2023-12-22T05:50:19;17.33;;;11.25;;
75986;SDS011;74517;44.762;37.698;2023-12-22T05:51:22;19.85;;;11.45;;
75986;SDS011;74517;44.762;37.698;2023-12-22T05:52:25;17.13;;;11.90;;
75986;SDS011;74517;44.762;37.698;2023-12-22T05:53:28;18.45;;;12.07;;
75986;SDS011;74517;44.762;37.698;2023-12-22T05:54:32;23.30;;;12.55;;
75986;SDS011;74517;44.762;37.698;2023-12-22T05:55:35;20.95;;;13.43;;
75986;SDS011;74517;44.762;37.698;2023-12-22T05:56:39;22.90;;;13.43;;
75986;SDS011;74517;44.762;37.698;2023-12-22T05:57:49;23.63;;;13.80;;
75986;SDS011;74517;44.762;37.698;2023-12-22T05:58:53;24.63;;;14.75;;
75986;SDS011;74517;44.762;37.698;2023-12-22T05:59:57;24.10;;;14.55;;
75986;SDS011;74517;44.762;37.698;2023-12-22T06:01:01;26.25;;;14.77;;
75986;SDS011;74517;44.762;37.698;2023-12-22T06:02:04;22.27;;;15.18;;
75986;SDS011;74517;44.762;37.698;2023-12-22T06:03:07;23.33;;;14.48;;
75986;SDS011;74517;44.762;37.698;2023-12-22T06:04:11;23.10;;;13.45;;
75986;SDS011;74517;44.762;37.698;2023-12-22T06:05:14;25.95;;;14.70;;
75986;SDS011;74517;44.762;37.698;2023-12-22T06:06:18;24.88;;;14.63;;
75986;SDS011;74517;44.762;37.698;2023-12-22T06:07:24;31.73;;;16.63;;
75986;SDS011;74517;44.762;37.698;2023-12-22T06:08:29;27.73;;;16.92;;
75986;SDS011;74517;44.762;37.698;2023-12-22T06:09:32;29.15;;;15.75;;
75986;SDS011;74517;44.762;37.698;2023-12-22T06:10:36;27.40;;;15.40;;
75986;SDS011;74517;44.762;37.698;2023-12-22T06:11:39;28.40;;;15.65;;
75986;SDS011;74517;44.762;37.698;2023-12-22T06:12:43;23.73;;;13.68;;
75986;SDS011;74517;44.762;37.698;2023-12-22T06:13:47;26.50;;;14.95;;